sensor_id;sensor_type;location;lat;lon;timestamp;P1;durP1;ratioP1;P2;durP2;ratioP2
77040;SDS011;65974;42.664;23.264;2023-02-28T00:01:11;21.55;;;13.73;;
77040;SDS011;65974;42.664;23.264;2023-02-28T00:03:38;31.85;;;15.75;;
77040;SDS011;65974;42.664;23.264;2023-02-28T00:06:04;26.25;;;13.95;;
77040;SDS011;65974;42.664;23.264;2023-02-28T00:08:30;25.17;;;13.23;;
77040;SDS011;65974;42.664;23.264;2023-02-28T00:10:56;20.90;;;10.90;;
77040;SDS011;65974;42.664;23.264;2023-02-28T00:13:28;29.20;;;14.60;;
77040;SDS011;65974;42.664;23.264;2023-02-28T00:16:10;18.92;;;12.40;;
77040;SDS011;65974;42.664;23.264;2023-02-28T00:18:38;22.00;;;11.70;;
77040;SDS011;65974;42.664;23.264;2023-02-28T00:21:04;18.85;;;10.30;;
77040;SDS011;65974;42.664;23.264;2023-02-28T00:23:30;19.08;;;10.32;;
77040;SDS011;65974;42.664;23.264;2023-02-28T00:25:56;15.98;;;9.73;;
77040;SDS011;65974;42.664;23.264;2023-02-28T00:28:22;14.57;;;8.63;;
77040;SDS011;65974;42.664;23.264;2023-02-28T00:30:48;13.68;;;8.57;;
77040;SDS011;65974;42.664;23.264;2023-02-28T00:33:13;21.45;;;9.60;;
77040;SDS011;65974;42.664;23.264;2023-02-28T00:35:38;15.50;;;10.02;;
77040;SDS011;65974;42.664;23.264;2023-02-28T00:38:04;18.08;;;8.80;;
77040;SDS011;65974;42.664;23.264;2023-02-28T00:40:30;13.95;;;8.50;;
77040;SDS011;65974;42.664;23.264;2023-02-28T00:42:56;12.35;;;6.40;;
77040;SDS011;65974;42.664;23.264;2023-02-28T00:45:21;10.80;;;6.03;;
77040;SDS011;65974;42.664;23.264;2023-02-28T00:47:46;14.32;;;8.02;;
77040;SDS011;65974;42.664;23.264;2023-02-28T00:50:14;13.80;;;8.38;;
77040;SDS011;65974;42.664;23.264;2023-02-28T00:52:45;13.27;;;9.07;;
77040;SDS011;65974;42.664;23.264;2023-02-28T00:55:10;22.88;;;12.85;;
77040;SDS011;65974;42.664;23.264;2023-02-28T00:57:36;14.30;;;9.27;;
77040;SDS011;65974;42.664;23.264;2023-02-28T01:00:02;15.60;;;9.43;;
77040;SDS011;65974;42.664;23.264;2023-02-28T01:02:28;23.60;;;11.38;;
77040;SDS011;65974;42.664;23.264;2023-02-28T01:04:54;20.63;;;10.63;;
77040;SDS011;65974;42.664;23.264;2023-02-28T01:07:19;18.85;;;8.60;;
77040;SDS011;65974;42.664;23.264;2023-02-28T01:09:44;12.00;;;7.45;;
77040;SDS011;65974;42.664;23.264;2023-02-28T01:12:10;15.43;;;9.40;;
77040;SDS011;65974;42.664;23.264;2023-02-28T01:14:36;29.73;;;14.98;;
77040;SDS011;65974;42.664;23.264;2023-02-28T01:17:02;27.60;;;12.95;;
77040;SDS011;65974;42.664;23.264;2023-02-28T01:19:28;15.85;;;7.97;;
77040;SDS011;65974;42.664;23.264;2023-02-28T01:21:53;26.35;;;14.20;;
77040;SDS011;65974;42.664;23.264;2023-02-28T01:24:18;33.38;;;15.93;;
77040;SDS011;65974;42.664;23.264;2023-02-28T01:26:44;20.63;;;10.57;;
77040;SDS011;65974;42.664;23.264;2023-02-28T01:29:10;43.13;;;15.75;;
77040;SDS011;65974;42.664;23.264;2023-02-28T01:31:35;10.90;;;6.93;;
77040;SDS011;65974;42.664;23.264;2023-02-28T01:34:01;15.48;;;8.25;;
77040;SDS011;65974;42.664;23.264;2023-02-28T01:36:26;22.63;;;13.30;;
77040;SDS011;65974;42.664;23.264;2023-02-28T01:38:52;26.02;;;12.55;;
77040;SDS011;65974;42.664;23.264;2023-02-28T01:41:19;23.77;;;12.75;;
77040;SDS011;65974;42.664;23.264;2023-02-28T01:43:59;25.00;;;11.32;;
77040;SDS011;65974;42.664;23.264;2023-02-28T01:46:32;23.52;;;12.82;;
77040;SDS011;65974;42.664;23.264;2023-02-28T01:51:29;38.00;;;17.98;;
77040;SDS011;65974;42.664;23.264;2023-02-28T01:54:01;25.85;;;12.05;;
77040;SDS011;65974;42.664;23.264;2023-02-28T01:56:32;32.10;;;14.23;;
77040;SDS011;65974;42.664;23.264;2023-02-28T01:59:00;37.47;;;17.35;;
77040;SDS011;65974;42.664;23.264;2023-02-28T02:01:27;28.55;;;15.07;;
77040;SDS011;65974;42.664;23.264;2023-02-28T02:03:54;50.50;;;17.80;;
77040;SDS011;65974;42.664;23.264;2023-02-28T02:06:23;20.85;;;11.00;;
77040;SDS011;65974;42.664;23.264;2023-02-28T02:08:55;36.28;;;15.80;;
77040;SDS011;65974;42.664;23.264;2023-02-28T02:11:21;32.72;;;16.75;;
77040;SDS011;65974;42.664;23.264;2023-02-28T02:27:28;36.92;;;13.82;;
77040;SDS011;65974;42.664;23.264;2023-02-28T02:36:19;28.70;;;12.25;;
77040;SDS011;65974;42.664;23.264;2023-02-28T02:38:36;30.45;;;15.10;;
77040;SDS011;65974;42.664;23.264;2023-02-28T02:43:51;31.25;;;14.88;;
77040;SDS011;65974;42.664;23.264;2023-02-28T02:46:27;37.95;;;16.10;;
77040;SDS011;65974;42.664;23.264;2023-02-28T02:48:57;28.25;;;12.55;;
77040;SDS011;65974;42.664;23.264;2023-02-28T02:51:30;37.17;;;14.75;;
77040;SDS011;65974;42.664;23.264;2023-02-28T02:53:59;28.48;;;11.75;;
77040;SDS011;65974;42.664;23.264;2023-02-28T02:56:41;30.13;;;13.57;;
77040;SDS011;65974;42.664;23.264;2023-02-28T02:59:11;25.35;;;11.60;;
77040;SDS011;65974;42.664;23.264;2023-02-28T03:01:39;26.98;;;12.65;;
77040;SDS011;65974;42.664;23.264;2023-02-28T03:04:10;32.90;;;15.95;;
77040;SDS011;65974;42.664;23.264;2023-02-28T03:06:41;33.92;;;16.42;;
77040;SDS011;65974;42.664;23.264;2023-02-28T03:09:06;36.33;;;16.45;;
77040;SDS011;65974;42.664;23.264;2023-02-28T03:11:32;31.98;;;14.05;;
77040;SDS011;65974;42.664;23.264;2023-02-28T03:27:38;30.27;;;13.52;;
77040;SDS011;65974;42.664;23.264;2023-02-28T03:30:12;39.60;;;18.27;;
77040;SDS011;65974;42.664;23.264;2023-02-28T03:35:23;32.10;;;14.23;;
77040;SDS011;65974;42.664;23.264;2023-02-28T03:37:53;34.42;;;17.02;;
77040;SDS011;65974;42.664;23.264;2023-02-28T03:40:25;45.90;;;18.88;;
77040;SDS011;65974;42.664;23.264;2023-02-28T03:42:56;40.45;;;16.75;;
77040;SDS011;65974;42.664;23.264;2023-02-28T03:45:30;29.00;;;13.68;;
77040;SDS011;65974;42.664;23.264;2023-02-28T03:48:15;38.67;;;16.42;;
77040;SDS011;65974;42.664;23.264;2023-02-28T03:50:42;42.33;;;19.20;;
77040;SDS011;65974;42.664;23.264;2023-02-28T03:53:16;47.65;;;20.92;;
77040;SDS011;65974;42.664;23.264;2023-02-28T03:55:54;45.42;;;18.83;;
77040;SDS011;65974;42.664;23.264;2023-02-28T04:01:09;42.97;;;18.42;;
77040;SDS011;65974;42.664;23.264;2023-02-28T04:03:38;33.40;;;17.17;;
77040;SDS011;65974;42.664;23.264;2023-02-28T04:06:04;34.30;;;18.23;;
77040;SDS011;65974;42.664;23.264;2023-02-28T04:08:33;37.70;;;18.52;;
77040;SDS011;65974;42.664;23.264;2023-02-28T04:11:01;31.20;;;15.10;;
77040;SDS011;65974;42.664;23.264;2023-02-28T04:13:31;40.38;;;18.60;;
77040;SDS011;65974;42.664;23.264;2023-02-28T04:15:57;38.55;;;17.33;;
77040;SDS011;65974;42.664;23.264;2023-02-28T04:18:22;34.40;;;15.85;;
77040;SDS011;65974;42.664;23.264;2023-02-28T04:20:48;33.05;;;15.90;;
77040;SDS011;65974;42.664;23.264;2023-02-28T04:23:13;25.50;;;11.95;;
77040;SDS011;65974;42.664;23.264;2023-02-28T04:25:38;33.60;;;15.63;;
77040;SDS011;65974;42.664;23.264;2023-02-28T04:28:05;40.10;;;18.08;;
77040;SDS011;65974;42.664;23.264;2023-02-28T04:30:31;36.70;;;18.05;;
77040;SDS011;65974;42.664;23.264;2023-02-28T04:32:58;41.33;;;16.83;;
77040;SDS011;65974;42.664;23.264;2023-02-28T04:35:24;30.85;;;15.27;;
77040;SDS011;65974;42.664;23.264;2023-02-28T04:37:50;35.00;;;16.98;;
77040;SDS011;65974;42.664;23.264;2023-02-28T04:40:15;31.50;;;17.35;;
77040;SDS011;65974;42.664;23.264;2023-02-28T04:42:41;39.90;;;17.40;;
77040;SDS011;65974;42.664;23.264;2023-02-28T04:45:06;32.08;;;15.15;;
77040;SDS011;65974;42.664;23.264;2023-02-28T04:47:35;26.23;;;13.30;;
77040;SDS011;65974;42.664;23.264;2023-02-28T04:50:01;34.97;;;16.83;;
77040;SDS011;65974;42.664;23.264;2023-02-28T04:52:27;24.38;;;12.82;;
77040;SDS011;65974;42.664;23.264;2023-02-28T04:54:52;29.25;;;16.02;;
77040;SDS011;65974;42.664;23.264;2023-02-28T04:57:18;23.58;;;11.70;;
77040;SDS011;65974;42.664;23.264;2023-02-28T04:59:43;9.88;;;8.15;;
77040;SDS011;65974;42.664;23.264;2023-02-28T05:02:09;35.83;;;16.65;;
77040;SDS011;65974;42.664;23.264;2023-02-28T05:04:34;33.15;;;15.30;;
77040;SDS011;65974;42.664;23.264;2023-02-28T05:07:00;26.25;;;12.25;;
77040;SDS011;65974;42.664;23.264;2023-02-28T05:09:26;31.67;;;16.83;;
77040;SDS011;65974;42.664;23.264;2023-02-28T05:11:53;33.90;;;16.23;;
77040;SDS011;65974;42.664;23.264;2023-02-28T05:14:18;29.02;;;15.13;;
77040;SDS011;65974;42.664;23.264;2023-02-28T05:16:43;35.00;;;16.73;;
77040;SDS011;65974;42.664;23.264;2023-02-28T05:19:09;30.77;;;15.98;;
77040;SDS011;65974;42.664;23.264;2023-02-28T05:21:35;28.05;;;14.05;;
77040;SDS011;65974;42.664;23.264;2023-02-28T05:24:06;31.98;;;16.15;;
77040;SDS011;65974;42.664;23.264;2023-02-28T05:26:35;28.02;;;14.20;;
77040;SDS011;65974;42.664;23.264;2023-02-28T05:29:02;21.40;;;10.70;;
77040;SDS011;65974;42.664;23.264;2023-02-28T05:31:28;18.88;;;9.40;;
77040;SDS011;65974;42.664;23.264;2023-02-28T05:33:53;27.35;;;13.27;;
77040;SDS011;65974;42.664;23.264;2023-02-28T05:36:19;26.23;;;12.18;;
77040;SDS011;65974;42.664;23.264;2023-02-28T05:38:47;27.15;;;13.00;;
77040;SDS011;65974;42.664;23.264;2023-02-28T05:41:13;26.85;;;13.02;;
77040;SDS011;65974;42.664;23.264;2023-02-28T05:43:39;16.83;;;9.93;;
77040;SDS011;65974;42.664;23.264;2023-02-28T05:46:05;24.20;;;13.07;;
77040;SDS011;65974;42.664;23.264;2023-02-28T05:48:33;28.00;;;13.60;;
77040;SDS011;65974;42.664;23.264;2023-02-28T05:51:00;28.45;;;14.18;;
77040;SDS011;65974;42.664;23.264;2023-02-28T05:53:27;24.02;;;10.82;;
77040;SDS011;65974;42.664;23.264;2023-02-28T05:55:52;22.48;;;12.15;;
77040;SDS011;65974;42.664;23.264;2023-02-28T05:58:18;12.38;;;6.57;;
77040;SDS011;65974;42.664;23.264;2023-02-28T06:00:43;17.02;;;7.28;;
77040;SDS011;65974;42.664;23.264;2023-02-28T06:03:09;12.45;;;6.05;;
77040;SDS011;65974;42.664;23.264;2023-02-28T06:05:34;28.77;;;11.50;;
77040;SDS011;65974;42.664;23.264;2023-02-28T06:07:59;27.45;;;12.98;;
77040;SDS011;65974;42.664;23.264;2023-02-28T06:10:25;29.08;;;13.40;;
77040;SDS011;65974;42.664;23.264;2023-02-28T06:12:50;26.80;;;14.80;;
77040;SDS011;65974;42.664;23.264;2023-02-28T06:15:16;25.77;;;13.63;;
77040;SDS011;65974;42.664;23.264;2023-02-28T06:17:42;33.60;;;13.30;;
77040;SDS011;65974;42.664;23.264;2023-02-28T06:20:08;28.52;;;14.82;;
77040;SDS011;65974;42.664;23.264;2023-02-28T06:22:35;22.80;;;12.15;;
77040;SDS011;65974;42.664;23.264;2023-02-28T06:25:01;28.17;;;12.35;;
77040;SDS011;65974;42.664;23.264;2023-02-28T06:27:27;29.80;;;14.63;;
77040;SDS011;65974;42.664;23.264;2023-02-28T06:29:53;35.22;;;14.52;;
77040;SDS011;65974;42.664;23.264;2023-02-28T06:32:20;27.77;;;12.65;;
77040;SDS011;65974;42.664;23.264;2023-02-28T06:34:46;30.48;;;15.05;;
77040;SDS011;65974;42.664;23.264;2023-02-28T06:37:12;32.15;;;15.20;;
77040;SDS011;65974;42.664;23.264;2023-02-28T06:39:37;34.10;;;16.38;;
77040;SDS011;65974;42.664;23.264;2023-02-28T06:42:03;27.23;;;13.70;;
77040;SDS011;65974;42.664;23.264;2023-02-28T06:44:29;25.27;;;12.63;;
77040;SDS011;65974;42.664;23.264;2023-02-28T06:47:00;34.00;;;16.38;;
77040;SDS011;65974;42.664;23.264;2023-02-28T06:49:28;33.85;;;16.58;;
77040;SDS011;65974;42.664;23.264;2023-02-28T06:51:54;35.22;;;17.10;;
77040;SDS011;65974;42.664;23.264;2023-02-28T06:54:19;34.08;;;14.85;;
77040;SDS011;65974;42.664;23.264;2023-02-28T06:56:45;30.17;;;14.32;;
77040;SDS011;65974;42.664;23.264;2023-02-28T06:59:11;26.15;;;15.30;;
77040;SDS011;65974;42.664;23.264;2023-02-28T07:01:37;20.52;;;9.48;;
77040;SDS011;65974;42.664;23.264;2023-02-28T07:04:04;32.53;;;16.92;;
77040;SDS011;65974;42.664;23.264;2023-02-28T07:06:30;40.38;;;18.95;;
77040;SDS011;65974;42.664;23.264;2023-02-28T07:08:56;40.63;;;18.80;;
77040;SDS011;65974;42.664;23.264;2023-02-28T07:11:22;36.22;;;18.88;;
77040;SDS011;65974;42.664;23.264;2023-02-28T07:13:51;29.15;;;14.70;;
77040;SDS011;65974;42.664;23.264;2023-02-28T07:16:17;40.53;;;18.55;;
77040;SDS011;65974;42.664;23.264;2023-02-28T07:18:42;17.35;;;14.50;;
77040;SDS011;65974;42.664;23.264;2023-02-28T07:21:08;19.90;;;11.85;;
77040;SDS011;65974;42.664;23.264;2023-02-28T07:23:35;22.15;;;13.25;;
77040;SDS011;65974;42.664;23.264;2023-02-28T07:26:03;23.00;;;14.73;;
77040;SDS011;65974;42.664;23.264;2023-02-28T07:28:29;29.27;;;14.77;;
77040;SDS011;65974;42.664;23.264;2023-02-28T07:30:54;25.92;;;14.07;;
77040;SDS011;65974;42.664;23.264;2023-02-28T07:33:19;53.08;;;23.77;;
77040;SDS011;65974;42.664;23.264;2023-02-28T07:35:45;48.13;;;22.00;;
77040;SDS011;65974;42.664;23.264;2023-02-28T07:38:10;43.60;;;21.45;;
77040;SDS011;65974;42.664;23.264;2023-02-28T07:40:38;35.95;;;18.48;;
77040;SDS011;65974;42.664;23.264;2023-02-28T07:43:04;29.85;;;16.77;;
77040;SDS011;65974;42.664;23.264;2023-02-28T07:45:29;30.98;;;14.60;;
77040;SDS011;65974;42.664;23.264;2023-02-28T07:47:59;42.40;;;18.20;;
77040;SDS011;65974;42.664;23.264;2023-02-28T07:50:25;40.42;;;19.00;;
77040;SDS011;65974;42.664;23.264;2023-02-28T07:52:52;47.97;;;21.88;;
77040;SDS011;65974;42.664;23.264;2023-02-28T07:55:18;49.55;;;23.55;;
77040;SDS011;65974;42.664;23.264;2023-02-28T07:57:43;39.47;;;15.15;;
77040;SDS011;65974;42.664;23.264;2023-02-28T08:00:10;53.70;;;21.85;;
77040;SDS011;65974;42.664;23.264;2023-02-28T08:02:37;34.55;;;15.90;;
77040;SDS011;65974;42.664;23.264;2023-02-28T08:05:03;47.45;;;20.40;;
77040;SDS011;65974;42.664;23.264;2023-02-28T08:07:29;46.33;;;20.42;;
77040;SDS011;65974;42.664;23.264;2023-02-28T08:09:54;43.67;;;21.05;;
77040;SDS011;65974;42.664;23.264;2023-02-28T08:12:20;34.97;;;16.30;;
77040;SDS011;65974;42.664;23.264;2023-02-28T08:14:45;37.15;;;19.92;;
77040;SDS011;65974;42.664;23.264;2023-02-28T08:17:10;35.58;;;15.07;;
77040;SDS011;65974;42.664;23.264;2023-02-28T08:19:36;31.45;;;15.15;;
77040;SDS011;65974;42.664;23.264;2023-02-28T08:22:02;25.38;;;14.77;;
77040;SDS011;65974;42.664;23.264;2023-02-28T08:24:27;49.85;;;23.00;;
77040;SDS011;65974;42.664;23.264;2023-02-28T08:26:53;47.17;;;21.45;;
77040;SDS011;65974;42.664;23.264;2023-02-28T08:29:19;59.03;;;24.02;;
77040;SDS011;65974;42.664;23.264;2023-02-28T08:31:45;41.25;;;18.30;;
77040;SDS011;65974;42.664;23.264;2023-02-28T08:34:11;44.30;;;21.48;;
77040;SDS011;65974;42.664;23.264;2023-02-28T08:36:39;54.92;;;22.63;;
77040;SDS011;65974;42.664;23.264;2023-02-28T08:39:04;26.88;;;12.98;;
77040;SDS011;65974;42.664;23.264;2023-02-28T08:41:31;46.88;;;19.08;;
77040;SDS011;65974;42.664;23.264;2023-02-28T08:43:56;39.65;;;20.98;;
77040;SDS011;65974;42.664;23.264;2023-02-28T08:46:22;49.72;;;23.75;;
77040;SDS011;65974;42.664;23.264;2023-02-28T08:48:50;48.30;;;20.45;;
77040;SDS011;65974;42.664;23.264;2023-02-28T08:51:18;42.22;;;21.25;;
77040;SDS011;65974;42.664;23.264;2023-02-28T08:53:51;52.85;;;26.10;;
77040;SDS011;65974;42.664;23.264;2023-02-28T08:56:21;46.17;;;20.65;;
77040;SDS011;65974;42.664;23.264;2023-02-28T08:58:55;44.70;;;18.10;;
77040;SDS011;65974;42.664;23.264;2023-02-28T09:01:22;37.42;;;15.38;;
77040;SDS011;65974;42.664;23.264;2023-02-28T09:03:50;43.00;;;20.00;;
77040;SDS011;65974;42.664;23.264;2023-02-28T09:06:17;50.92;;;23.23;;
77040;SDS011;65974;42.664;23.264;2023-02-28T09:08:44;52.05;;;23.70;;
77040;SDS011;65974;42.664;23.264;2023-02-28T09:11:10;44.83;;;22.05;;
77040;SDS011;65974;42.664;23.264;2023-02-28T09:13:36;56.85;;;27.92;;
77040;SDS011;65974;42.664;23.264;2023-02-28T09:16:03;110.03;;;67.05;;
77040;SDS011;65974;42.664;23.264;2023-02-28T09:18:29;73.25;;;34.95;;
77040;SDS011;65974;42.664;23.264;2023-02-28T09:20:55;56.13;;;25.63;;
77040;SDS011;65974;42.664;23.264;2023-02-28T09:23:21;63.90;;;28.75;;
77040;SDS011;65974;42.664;23.264;2023-02-28T09:25:47;60.80;;;24.85;;
77040;SDS011;65974;42.664;23.264;2023-02-28T09:28:15;51.75;;;23.20;;
77040;SDS011;65974;42.664;23.264;2023-02-28T09:30:41;47.28;;;20.83;;
77040;SDS011;65974;42.664;23.264;2023-02-28T09:33:09;39.47;;;22.15;;
77040;SDS011;65974;42.664;23.264;2023-02-28T09:35:34;43.15;;;18.20;;
77040;SDS011;65974;42.664;23.264;2023-02-28T09:38:02;59.72;;;24.38;;
77040;SDS011;65974;42.664;23.264;2023-02-28T09:40:27;48.25;;;21.73;;
77040;SDS011;65974;42.664;23.264;2023-02-28T09:42:54;36.38;;;16.83;;
77040;SDS011;65974;42.664;23.264;2023-02-28T09:48:24;32.95;;;16.08;;
77040;SDS011;65974;42.664;23.264;2023-02-28T09:51:00;44.40;;;22.20;;
77040;SDS011;65974;42.664;23.264;2023-02-28T09:53:31;55.55;;;24.83;;
77040;SDS011;65974;42.664;23.264;2023-02-28T09:56:26;48.97;;;22.98;;
77040;SDS011;65974;42.664;23.264;2023-02-28T09:58:57;36.83;;;18.60;;
77040;SDS011;65974;42.664;23.264;2023-02-28T10:04:11;45.08;;;22.83;;
77040;SDS011;65974;42.664;23.264;2023-02-28T10:07:10;55.13;;;21.45;;
77040;SDS011;65974;42.664;23.264;2023-02-28T10:09:44;41.50;;;18.58;;
77040;SDS011;65974;42.664;23.264;2023-02-28T10:12:15;38.00;;;17.77;;
77040;SDS011;65974;42.664;23.264;2023-02-28T10:14:43;47.08;;;23.10;;
77040;SDS011;65974;42.664;23.264;2023-02-28T10:17:16;38.53;;;20.23;;
77040;SDS011;65974;42.664;23.264;2023-02-28T10:24:47;50.10;;;21.67;;
77040;SDS011;65974;42.664;23.264;2023-02-28T10:29:48;35.35;;;16.35;;
77040;SDS011;65974;42.664;23.264;2023-02-28T10:32:18;45.88;;;19.67;;
77040;SDS011;65974;42.664;23.264;2023-02-28T10:37:25;47.53;;;23.20;;
77040;SDS011;65974;42.664;23.264;2023-02-28T10:39:51;47.17;;;24.27;;
77040;SDS011;65974;42.664;23.264;2023-02-28T10:42:27;47.08;;;21.10;;
77040;SDS011;65974;42.664;23.264;2023-02-28T10:45:09;54.72;;;23.75;;
77040;SDS011;65974;42.664;23.264;2023-02-28T10:47:35;48.85;;;22.27;;
77040;SDS011;65974;42.664;23.264;2023-02-28T10:50:46;37.15;;;18.98;;
77040;SDS011;65974;42.664;23.264;2023-02-28T11:01:26;20.15;;;10.98;;
77040;SDS011;65974;42.664;23.264;2023-02-28T11:03:59;15.52;;;8.45;;
77040;SDS011;65974;42.664;23.264;2023-02-28T11:06:32;23.92;;;10.82;;
77040;SDS011;65974;42.664;23.264;2023-02-28T11:08:59;18.77;;;8.60;;
77040;SDS011;65974;42.664;23.264;2023-02-28T11:11:45;17.88;;;8.65;;
77040;SDS011;65974;42.664;23.264;2023-02-28T11:14:33;25.17;;;9.88;;
77040;SDS011;65974;42.664;23.264;2023-02-28T11:17:21;22.13;;;10.23;;
77040;SDS011;65974;42.664;23.264;2023-02-28T11:19:53;22.83;;;10.30;;
77040;SDS011;65974;42.664;23.264;2023-02-28T11:22:43;20.17;;;9.90;;
77040;SDS011;65974;42.664;23.264;2023-02-28T11:25:28;20.38;;;8.40;;
77040;SDS011;65974;42.664;23.264;2023-02-28T11:28:02;20.15;;;9.35;;
77040;SDS011;65974;42.664;23.264;2023-02-28T11:30:49;19.88;;;11.25;;
77040;SDS011;65974;42.664;23.264;2023-02-28T11:33:30;19.33;;;11.10;;
77040;SDS011;65974;42.664;23.264;2023-02-28T11:36:07;18.60;;;9.30;;
77040;SDS011;65974;42.664;23.264;2023-02-28T11:38:38;15.88;;;8.52;;
77040;SDS011;65974;42.664;23.264;2023-02-28T11:52:40;21.02;;;9.95;;
77040;SDS011;65974;42.664;23.264;2023-02-28T11:54:58;21.65;;;10.27;;
77040;SDS011;65974;42.664;23.264;2023-02-28T12:17:12;20.10;;;10.10;;
77040;SDS011;65974;42.664;23.264;2023-02-28T12:19:58;23.67;;;10.90;;
77040;SDS011;65974;42.664;23.264;2023-02-28T12:28:12;23.05;;;10.43;;
77040;SDS011;65974;42.664;23.264;2023-02-28T12:30:46;22.15;;;10.45;;
77040;SDS011;65974;42.664;23.264;2023-02-28T12:33:20;22.58;;;10.00;;
77040;SDS011;65974;42.664;23.264;2023-02-28T12:35:50;22.25;;;10.55;;
77040;SDS011;65974;42.664;23.264;2023-02-28T12:41:19;20.00;;;10.38;;
77040;SDS011;65974;42.664;23.264;2023-02-28T12:44:00;20.27;;;9.32;;
77040;SDS011;65974;42.664;23.264;2023-02-28T12:46:30;20.25;;;11.10;;
77040;SDS011;65974;42.664;23.264;2023-02-28T12:49:15;15.40;;;8.20;;
77040;SDS011;65974;42.664;23.264;2023-02-28T12:51:46;18.27;;;10.20;;
77040;SDS011;65974;42.664;23.264;2023-02-28T12:54:24;22.33;;;9.77;;
77040;SDS011;65974;42.664;23.264;2023-02-28T12:59:56;21.50;;;9.88;;
77040;SDS011;65974;42.664;23.264;2023-02-28T13:10:44;23.80;;;10.30;;
77040;SDS011;65974;42.664;23.264;2023-02-28T13:13:20;17.83;;;9.88;;
77040;SDS011;65974;42.664;23.264;2023-02-28T13:18:35;22.10;;;10.93;;
77040;SDS011;65974;42.664;23.264;2023-02-28T13:21:05;20.75;;;10.55;;
77040;SDS011;65974;42.664;23.264;2023-02-28T13:26:03;20.67;;;9.45;;
77040;SDS011;65974;42.664;23.264;2023-02-28T13:31:16;23.13;;;9.85;;
77040;SDS011;65974;42.664;23.264;2023-02-28T13:38:53;15.95;;;8.52;;
77040;SDS011;65974;42.664;23.264;2023-02-28T13:51:48;14.23;;;7.78;;
77040;SDS011;65974;42.664;23.264;2023-02-28T14:05:20;16.50;;;8.40;;
77040;SDS011;65974;42.664;23.264;2023-02-28T14:07:52;13.13;;;7.00;;
77040;SDS011;65974;42.664;23.264;2023-02-28T14:10:24;20.20;;;8.73;;
77040;SDS011;65974;42.664;23.264;2023-02-28T14:17:54;15.75;;;8.88;;
77040;SDS011;65974;42.664;23.264;2023-02-28T14:20:21;19.98;;;9.05;;
77040;SDS011;65974;42.664;23.264;2023-02-28T14:25:43;22.10;;;11.13;;
77040;SDS011;65974;42.664;23.264;2023-02-28T14:34:13;24.55;;;10.45;;
77040;SDS011;65974;42.664;23.264;2023-02-28T14:36:50;14.20;;;7.13;;
77040;SDS011;65974;42.664;23.264;2023-02-28T14:39:20;21.98;;;10.05;;
77040;SDS011;65974;42.664;23.264;2023-02-28T14:41:49;19.95;;;8.88;;
77040;SDS011;65974;42.664;23.264;2023-02-28T14:44:20;20.48;;;8.93;;
77040;SDS011;65974;42.664;23.264;2023-02-28T14:46:46;20.73;;;10.32;;
77040;SDS011;65974;42.664;23.264;2023-02-28T14:49:18;14.60;;;7.47;;
77040;SDS011;65974;42.664;23.264;2023-02-28T14:52:02;17.08;;;8.75;;
77040;SDS011;65974;42.664;23.264;2023-02-28T14:54:28;18.80;;;9.50;;
77040;SDS011;65974;42.664;23.264;2023-02-28T14:56:54;18.55;;;9.70;;
77040;SDS011;65974;42.664;23.264;2023-02-28T14:59:27;22.05;;;9.23;;
77040;SDS011;65974;42.664;23.264;2023-02-28T15:04:56;21.73;;;10.57;;
77040;SDS011;65974;42.664;23.264;2023-02-28T15:07:24;21.52;;;9.30;;
77040;SDS011;65974;42.664;23.264;2023-02-28T15:18:04;22.20;;;10.30;;
77040;SDS011;65974;42.664;23.264;2023-02-28T15:20:31;25.58;;;11.05;;
77040;SDS011;65974;42.664;23.264;2023-02-28T15:22:57;36.60;;;13.35;;
77040;SDS011;65974;42.664;23.264;2023-02-28T15:25:24;20.45;;;9.73;;
77040;SDS011;65974;42.664;23.264;2023-02-28T15:27:51;24.25;;;10.93;;
77040;SDS011;65974;42.664;23.264;2023-02-28T15:30:21;21.33;;;8.20;;
77040;SDS011;65974;42.664;23.264;2023-02-28T15:35:36;11.38;;;5.68;;
77040;SDS011;65974;42.664;23.264;2023-02-28T15:40:42;19.30;;;9.00;;
77040;SDS011;65974;42.664;23.264;2023-02-28T15:43:16;18.88;;;8.73;;
77040;SDS011;65974;42.664;23.264;2023-02-28T15:45:47;18.33;;;9.77;;
77040;SDS011;65974;42.664;23.264;2023-02-28T15:50:42;19.55;;;8.73;;
77040;SDS011;65974;42.664;23.264;2023-02-28T15:53:12;22.52;;;8.25;;
77040;SDS011;65974;42.664;23.264;2023-02-28T15:55:40;28.90;;;11.38;;
77040;SDS011;65974;42.664;23.264;2023-02-28T15:58:08;20.33;;;8.90;;
77040;SDS011;65974;42.664;23.264;2023-02-28T16:00:38;18.33;;;8.98;;
77040;SDS011;65974;42.664;23.264;2023-02-28T16:03:22;20.83;;;10.60;;
77040;SDS011;65974;42.664;23.264;2023-02-28T16:08:51;23.15;;;9.65;;
77040;SDS011;65974;42.664;23.264;2023-02-28T16:11:18;14.30;;;8.35;;
77040;SDS011;65974;42.664;23.264;2023-02-28T16:13:45;18.98;;;9.25;;
77040;SDS011;65974;42.664;23.264;2023-02-28T16:16:18;23.30;;;11.73;;
77040;SDS011;65974;42.664;23.264;2023-02-28T16:18:45;16.23;;;8.77;;
77040;SDS011;65974;42.664;23.264;2023-02-28T16:21:10;15.52;;;9.15;;
77040;SDS011;65974;42.664;23.264;2023-02-28T16:23:36;15.30;;;6.93;;
77040;SDS011;65974;42.664;23.264;2023-02-28T16:26:02;14.60;;;9.38;;
77040;SDS011;65974;42.664;23.264;2023-02-28T16:28:30;12.60;;;8.02;;
77040;SDS011;65974;42.664;23.264;2023-02-28T16:31:01;14.05;;;7.75;;
77040;SDS011;65974;42.664;23.264;2023-02-28T16:33:28;15.18;;;7.95;;
77040;SDS011;65974;42.664;23.264;2023-02-28T16:35:54;14.32;;;7.22;;
77040;SDS011;65974;42.664;23.264;2023-02-28T16:38:19;16.88;;;8.57;;
77040;SDS011;65974;42.664;23.264;2023-02-28T16:40:46;12.88;;;7.45;;
77040;SDS011;65974;42.664;23.264;2023-02-28T16:43:18;13.45;;;7.43;;
77040;SDS011;65974;42.664;23.264;2023-02-28T16:45:47;13.45;;;7.35;;
77040;SDS011;65974;42.664;23.264;2023-02-28T16:48:16;13.52;;;7.60;;
77040;SDS011;65974;42.664;23.264;2023-02-28T16:50:41;16.65;;;7.75;;
77040;SDS011;65974;42.664;23.264;2023-02-28T16:53:09;9.13;;;6.65;;
77040;SDS011;65974;42.664;23.264;2023-02-28T16:55:35;16.75;;;9.00;;
77040;SDS011;65974;42.664;23.264;2023-02-28T16:58:01;11.68;;;7.32;;
77040;SDS011;65974;42.664;23.264;2023-02-28T17:00:28;13.95;;;7.38;;
77040;SDS011;65974;42.664;23.264;2023-02-28T17:02:56;12.60;;;6.80;;
77040;SDS011;65974;42.664;23.264;2023-02-28T17:05:22;14.63;;;8.18;;
77040;SDS011;65974;42.664;23.264;2023-02-28T17:07:48;6.65;;;3.90;;
77040;SDS011;65974;42.664;23.264;2023-02-28T17:10:21;12.40;;;6.30;;
77040;SDS011;65974;42.664;23.264;2023-02-28T17:12:49;10.10;;;6.13;;
77040;SDS011;65974;42.664;23.264;2023-02-28T17:15:16;11.98;;;6.07;;
77040;SDS011;65974;42.664;23.264;2023-02-28T17:20:13;10.20;;;6.03;;
77040;SDS011;65974;42.664;23.264;2023-02-28T17:22:39;12.00;;;6.53;;
77040;SDS011;65974;42.664;23.264;2023-02-28T17:25:05;12.07;;;6.70;;
77040;SDS011;65974;42.664;23.264;2023-02-28T17:27:31;13.88;;;6.75;;
77040;SDS011;65974;42.664;23.264;2023-02-28T17:29:56;10.48;;;5.93;;
77040;SDS011;65974;42.664;23.264;2023-02-28T17:32:22;13.18;;;6.40;;
77040;SDS011;65974;42.664;23.264;2023-02-28T17:34:48;12.05;;;4.97;;